sensor_id;sensor_type;location;lat;lon;timestamp;pressure;altitude;pressure_sealevel;temperature;humidity
65760;BME280;52496;51.082;5.066;2023-08-08T01:17:25;101446.44;;;12.75;100.00
65760;BME280;52496;51.082;5.066;2023-08-08T01:27:57;101455.13;;;12.77;100.00
65760;BME280;52496;51.082;5.066;2023-08-08T01:35:54;101450.13;;;12.74;100.00
65760;BME280;52496;51.082;5.066;2023-08-08T02:21:07;101411.53;;;12.60;100.00
65760;BME280;52496;51.082;5.066;2023-08-08T02:26:19;101420.88;;;12.65;100.00
65760;BME280;52496;51.082;5.066;2023-08-08T02:31:30;101413.66;;;12.65;100.00
65760;BME280;52496;51.082;5.066;2023-08-08T02:34:01;101412.66;;;12.66;100.00
65760;BME280;52496;51.082;5.066;2023-08-08T02:39:11;101386.81;;;12.65;100.00
65760;BME280;52496;51.082;5.066;2023-08-08T02:44:22;101392.66;;;12.69;100.00
65760;BME280;52496;51.082;5.066;2023-08-08T02:49:33;101395.16;;;12.70;100.00
65760;BME280;52496;51.082;5.066;2023-08-08T03:02:44;101377.03;;;12.72;100.00
65760;BME280;52496;51.082;5.066;2023-08-08T03:21:16;101362.97;;;12.70;100.00
65760;BME280;52496;51.082;5.066;2023-08-08T03:26:27;101373.31;;;12.73;100.00
65760;BME280;52496;51.082;5.066;2023-08-08T03:29:06;101373.31;;;12.73;100.00
65760;BME280;52496;51.082;5.066;2023-08-08T03:31:40;101365.94;;;12.75;100.00
65760;BME280;52496;51.082;5.066;2023-08-08T03:42:11;101376.38;;;12.85;100.00
65760;BME280;52496;51.082;5.066;2023-08-08T03:57:56;101358.69;;;12.91;100.00
65760;BME280;52496;51.082;5.066;2023-08-08T04:00:27;101368.47;;;12.98;100.00
65760;BME280;52496;51.082;5.066;2023-08-08T04:02:57;101362.09;;;12.99;100.00
65760;BME280;52496;51.082;5.066;2023-08-08T04:05:28;101359.59;;;12.98;100.00
65760;BME280;52496;51.082;5.066;2023-08-08T04:10:39;101362.09;;;12.99;100.00
65760;BME280;52496;51.082;5.066;2023-08-08T04:15:50;101357.94;;;12.97;100.00
65760;BME280;52496;51.082;5.066;2023-08-08T04:23:43;101361.00;;;12.94;100.00
65760;BME280;52496;51.082;5.066;2023-08-08T04:50:10;101362.47;;;12.96;100.00
65760;BME280;52496;51.082;5.066;2023-08-08T04:52:41;101347.59;;;12.94;100.00
65760;BME280;52496;51.082;5.066;2023-08-08T04:57:51;101352.22;;;13.00;100.00
65760;BME280;52496;51.082;5.066;2023-08-08T05:00:22;101364.66;;;13.07;100.00
65760;BME280;52496;51.082;5.066;2023-08-08T05:02:52;101354.31;;;13.04;100.00
65760;BME280;52496;51.082;5.066;2023-08-08T05:08:03;101350.25;;;13.08;100.00
65760;BME280;52496;51.082;5.066;2023-08-08T05:23:55;101357.63;;;13.58;100.00
65760;BME280;52496;51.082;5.066;2023-08-08T05:38:01;101375.22;;;14.03;100.00
65760;BME280;52496;51.082;5.066;2023-08-08T05:40:34;101374.81;;;14.06;100.00
65760;BME280;52496;51.082;5.066;2023-08-08T05:43:08;101376.47;;;14.07;100.00
65760;BME280;52496;51.082;5.066;2023-08-08T05:45:39;101378.50;;;14.05;100.00
65760;BME280;52496;51.082;5.066;2023-08-08T05:48:12;101375.44;;;14.08;100.00
65760;BME280;52496;51.082;5.066;2023-08-08T06:06:44;101400.72;;;14.42;100.00
65760;BME280;52496;51.082;5.066;2023-08-08T06:09:15;101389.97;;;14.42;100.00
65760;BME280;52496;51.082;5.066;2023-08-08T06:11:46;101403.75;;;14.54;100.00
65760;BME280;52496;51.082;5.066;2023-08-08T06:14:17;101397.81;;;14.65;100.00
65760;BME280;52496;51.082;5.066;2023-08-08T06:16:48;101394.38;;;14.78;100.00
65760;BME280;52496;51.082;5.066;2023-08-08T06:19:21;101386.94;;;14.80;100.00
65760;BME280;52496;51.082;5.066;2023-08-08T06:21:54;101398.16;;;14.90;100.00
65760;BME280;52496;51.082;5.066;2023-08-08T06:24:25;101410.69;;;15.04;100.00
65760;BME280;52496;51.082;5.066;2023-08-08T06:26:56;101401.38;;;15.07;100.00
65760;BME280;52496;51.082;5.066;2023-08-08T06:29:29;101396.25;;;15.19;100.00
65760;BME280;52496;51.082;5.066;2023-08-08T06:32:03;101402.47;;;15.26;100.00
65760;BME280;52496;51.082;5.066;2023-08-08T06:34:33;101391.72;;;15.39;100.00
65760;BME280;52496;51.082;5.066;2023-08-08T06:37:04;101393.84;;;15.50;100.00
65760;BME280;52496;51.082;5.066;2023-08-08T06:39:34;101397.38;;;15.57;100.00
65760;BME280;52496;51.082;5.066;2023-08-08T06:42:05;101394.13;;;15.69;100.00
65760;BME280;52496;51.082;5.066;2023-08-08T06:44:41;101395.59;;;15.91;100.00
65760;BME280;52496;51.082;5.066;2023-08-08T06:47:13;101397.28;;;16.05;100.00
65760;BME280;52496;51.082;5.066;2023-08-08T06:49:46;101400.59;;;16.14;100.00
65760;BME280;52496;51.082;5.066;2023-08-08T06:52:17;101399.78;;;16.20;100.00
65760;BME280;52496;51.082;5.066;2023-08-08T06:54:47;101397.69;;;16.29;100.00
65760;BME280;52496;51.082;5.066;2023-08-08T06:57:18;101404.53;;;16.38;100.00
65760;BME280;52496;51.082;5.066;2023-08-08T06:59:48;101398.91;;;16.40;100.00
65760;BME280;52496;51.082;5.066;2023-08-08T07:02:21;101407.84;;;16.54;100.00
65760;BME280;52496;51.082;5.066;2023-08-08T07:04:51;101400.56;;;16.61;100.00
65760;BME280;52496;51.082;5.066;2023-08-08T07:07:24;101403.03;;;16.69;100.00
65760;BME280;52496;51.082;5.066;2023-08-08T07:09:57;101400.16;;;16.77;100.00
65760;BME280;52496;51.082;5.066;2023-08-08T07:12:28;101397.41;;;16.90;100.00
65760;BME280;52496;51.082;5.066;2023-08-08T07:14:58;101400.25;;;17.09;100.00
65760;BME280;52496;51.082;5.066;2023-08-08T07:17:29;101387.53;;;17.16;100.00
65760;BME280;52496;51.082;5.066;2023-08-08T07:20:00;101397.91;;;17.26;100.00
65760;BME280;52496;51.082;5.066;2023-08-08T07:22:36;101391.22;;;17.28;100.00
65760;BME280;52496;51.082;5.066;2023-08-08T07:25:08;101389.03;;;17.43;100.00
65760;BME280;52496;51.082;5.066;2023-08-08T07:30:21;101387.25;;;17.69;100.00
65760;BME280;52496;51.082;5.066;2023-08-08T07:32:52;101381.38;;;17.79;100.00
65760;BME280;52496;51.082;5.066;2023-08-08T07:35:23;101384.25;;;17.84;100.00
65760;BME280;52496;51.082;5.066;2023-08-08T07:43:14;101391.56;;;18.08;100.00
65760;BME280;52496;51.082;5.066;2023-08-08T07:53:45;101398.41;;;18.36;100.00
65760;BME280;52496;51.082;5.066;2023-08-08T08:04:19;101388.28;;;18.68;100.00
65760;BME280;52496;51.082;5.066;2023-08-08T08:09:30;101385.91;;;18.78;100.00
65760;BME280;52496;51.082;5.066;2023-08-08T08:12:00;101393.28;;;18.90;100.00
65760;BME280;52496;51.082;5.066;2023-08-08T08:14:31;101384.13;;;18.91;100.00
65760;BME280;52496;51.082;5.066;2023-08-08T08:17:01;101393.97;;;19.03;100.00
65760;BME280;52496;51.082;5.066;2023-08-08T08:22:12;101387.09;;;19.01;100.00
65760;BME280;52496;51.082;5.066;2023-08-08T08:24:43;101385.91;;;18.97;100.00
65760;BME280;52496;51.082;5.066;2023-08-08T08:27:13;101391.19;;;18.92;100.00
65760;BME280;52496;51.082;5.066;2023-08-08T08:29:44;101390.56;;;18.90;100.00
65760;BME280;52496;51.082;5.066;2023-08-08T08:32:14;101389.91;;;18.76;100.00
65760;BME280;52496;51.082;5.066;2023-08-08T08:40:06;101381.13;;;18.55;100.00
65760;BME280;52496;51.082;5.066;2023-08-08T08:42:39;101383.75;;;18.62;100.00
65760;BME280;52496;51.082;5.066;2023-08-08T08:45:11;101381.78;;;18.76;100.00
65760;BME280;52496;51.082;5.066;2023-08-08T08:47:43;101391.50;;;19.02;100.00
65760;BME280;52496;51.082;5.066;2023-08-08T08:50:16;101390.09;;;19.30;100.00
65760;BME280;52496;51.082;5.066;2023-08-08T08:52:47;101390.47;;;19.63;100.00
65760;BME280;52496;51.082;5.066;2023-08-08T08:55:19;101390.66;;;19.92;100.00
65760;BME280;52496;51.082;5.066;2023-08-08T08:57:50;101396.13;;;20.15;100.00
65760;BME280;52496;51.082;5.066;2023-08-08T09:00:21;101387.41;;;20.25;100.00
65760;BME280;52496;51.082;5.066;2023-08-08T09:02:52;101393.44;;;20.15;100.00
65760;BME280;52496;51.082;5.066;2023-08-08T09:05:26;101401.78;;;20.02;100.00
65760;BME280;52496;51.082;5.066;2023-08-08T09:07:56;101396.22;;;19.97;100.00
65760;BME280;52496;51.082;5.066;2023-08-08T09:10:27;101394.78;;;19.83;100.00
65760;BME280;52496;51.082;5.066;2023-08-08T09:12:59;101399.34;;;19.70;100.00
65760;BME280;52496;51.082;5.066;2023-08-08T09:15:34;101398.09;;;19.55;100.00
65760;BME280;52496;51.082;5.066;2023-08-08T09:18:04;101401.81;;;19.42;100.00
65760;BME280;52496;51.082;5.066;2023-08-08T09:20:37;101400.25;;;19.34;100.00
65760;BME280;52496;51.082;5.066;2023-08-08T09:23:08;101394.47;;;19.31;100.00
65760;BME280;52496;51.082;5.066;2023-08-08T09:25:39;101399.16;;;19.23;100.00
65760;BME280;52496;51.082;5.066;2023-08-08T09:28:10;101397.47;;;19.22;100.00
65760;BME280;52496;51.082;5.066;2023-08-08T09:30:44;101394.19;;;19.20;100.00
65760;BME280;52496;51.082;5.066;2023-08-08T09:35:55;101393.66;;;19.12;100.00
65760;BME280;52496;51.082;5.066;2023-08-08T09:38:25;101399.75;;;19.07;100.00
65760;BME280;52496;51.082;5.066;2023-08-08T09:40:56;101399.53;;;19.09;100.00
65760;BME280;52496;51.082;5.066;2023-08-08T09:43:27;101401.91;;;19.17;100.00
65760;BME280;52496;51.082;5.066;2023-08-08T09:45:58;101403.19;;;19.33;100.00
65760;BME280;52496;51.082;5.066;2023-08-08T09:48:30;101400.44;;;19.51;100.00
65760;BME280;52496;51.082;5.066;2023-08-08T09:51:01;101409.38;;;19.70;100.00
65760;BME280;52496;51.082;5.066;2023-08-08T09:53:32;101408.44;;;19.76;99.17
65760;BME280;52496;51.082;5.066;2023-08-08T09:56:04;101415.41;;;19.84;98.77
65760;BME280;52496;51.082;5.066;2023-08-08T09:58:35;101419.91;;;19.90;98.22
65760;BME280;52496;51.082;5.066;2023-08-08T10:01:06;101410.47;;;19.81;97.51
65760;BME280;52496;51.082;5.066;2023-08-08T10:03:37;101412.00;;;19.77;98.25
65760;BME280;52496;51.082;5.066;2023-08-08T10:06:08;101412.31;;;19.68;95.83
65760;BME280;52496;51.082;5.066;2023-08-08T10:08:38;101433.34;;;19.55;97.70
65760;BME280;52496;51.082;5.066;2023-08-08T10:11:09;101428.94;;;19.42;98.92
65760;BME280;52496;51.082;5.066;2023-08-08T10:13:48;101426.34;;;19.47;100.00
65760;BME280;52496;51.082;5.066;2023-08-08T10:16:19;101423.09;;;19.57;100.00
65760;BME280;52496;51.082;5.066;2023-08-08T10:18:56;101425.56;;;19.77;100.00
65760;BME280;52496;51.082;5.066;2023-08-08T10:21:32;101423.84;;;19.94;99.14
65760;BME280;52496;51.082;5.066;2023-08-08T10:24:07;101415.22;;;19.97;94.80
65760;BME280;52496;51.082;5.066;2023-08-08T10:27:10;101419.00;;;19.96;94.30
65760;BME280;52496;51.082;5.066;2023-08-08T10:29:41;101423.03;;;20.05;94.79
65760;BME280;52496;51.082;5.066;2023-08-08T10:32:24;101420.22;;;20.24;94.87
65760;BME280;52496;51.082;5.066;2023-08-08T10:35:03;101428.75;;;20.39;95.22
65760;BME280;52496;51.082;5.066;2023-08-08T10:37:33;101433.59;;;20.49;94.91
65760;BME280;52496;51.082;5.066;2023-08-08T10:40:05;101431.00;;;20.54;94.44
65760;BME280;52496;51.082;5.066;2023-08-08T10:42:43;101432.78;;;20.48;91.84
65760;BME280;52496;51.082;5.066;2023-08-08T10:45:15;101430.06;;;20.48;92.64
65760;BME280;52496;51.082;5.066;2023-08-08T10:47:46;101431.38;;;20.57;93.74
65760;BME280;52496;51.082;5.066;2023-08-08T10:50:22;101415.16;;;20.74;94.31
65760;BME280;52496;51.082;5.066;2023-08-08T10:52:54;101409.44;;;21.11;93.51
65760;BME280;52496;51.082;5.066;2023-08-08T10:55:34;101403.97;;;21.51;91.10
65760;BME280;52496;51.082;5.066;2023-08-08T10:58:07;101398.28;;;21.98;87.63
65760;BME280;52496;51.082;5.066;2023-08-08T11:00:39;101395.66;;;22.20;82.05
65760;BME280;52496;51.082;5.066;2023-08-08T11:03:09;101395.31;;;22.51;78.22
65760;BME280;52496;51.082;5.066;2023-08-08T11:05:40;101377.13;;;22.78;76.68
65760;BME280;52496;51.082;5.066;2023-08-08T11:08:15;101396.41;;;23.10;76.32
65760;BME280;52496;51.082;5.066;2023-08-08T11:10:45;101381.84;;;23.27;72.70
65760;BME280;52496;51.082;5.066;2023-08-08T11:13:21;101382.22;;;23.35;72.93
65760;BME280;52496;51.082;5.066;2023-08-08T11:15:52;101385.03;;;23.46;72.82
65760;BME280;52496;51.082;5.066;2023-08-08T11:18:22;101379.22;;;23.64;72.77
65760;BME280;52496;51.082;5.066;2023-08-08T11:20:53;101365.72;;;23.52;70.87
65760;BME280;52496;51.082;5.066;2023-08-08T11:23:23;101370.34;;;23.47;72.86
65760;BME280;52496;51.082;5.066;2023-08-08T11:25:54;101375.88;;;23.57;72.10
65760;BME280;52496;51.082;5.066;2023-08-08T11:28:25;101384.81;;;23.74;67.82
65760;BME280;52496;51.082;5.066;2023-08-08T11:30:55;101364.66;;;23.80;69.16
65760;BME280;52496;51.082;5.066;2023-08-08T11:36:06;101362.34;;;23.99;64.88
65760;BME280;52496;51.082;5.066;2023-08-08T22:06:40;101168.28;;;15.71;100.00
65760;BME280;52496;51.082;5.066;2023-08-08T22:09:10;101177.81;;;15.73;100.00
65760;BME280;52496;51.082;5.066;2023-08-08T22:11:41;101164.53;;;15.72;100.00
65760;BME280;52496;51.082;5.066;2023-08-08T22:14:11;101160.19;;;15.71;100.00
65760;BME280;52496;51.082;5.066;2023-08-08T22:16:42;101173.66;;;15.71;100.00
65760;BME280;52496;51.082;5.066;2023-08-08T22:19:12;101166.59;;;15.70;100.00
65760;BME280;52496;51.082;5.066;2023-08-08T22:21:43;101167.44;;;15.70;100.00
65760;BME280;52496;51.082;5.066;2023-08-08T22:24:13;101166.59;;;15.70;100.00
65760;BME280;52496;51.082;5.066;2023-08-08T22:26:43;101174.50;;;15.71;100.00
65760;BME280;52496;51.082;5.066;2023-08-08T22:29:14;101167.22;;;15.72;100.00
65760;BME280;52496;51.082;5.066;2023-08-08T22:31:44;101158.31;;;15.71;100.00
65760;BME280;52496;51.082;5.066;2023-08-08T22:34:15;101158.09;;;15.73;100.00
65760;BME280;52496;51.082;5.066;2023-08-08T22:36:45;101152.69;;;15.73;100.00
65760;BME280;52496;51.082;5.066;2023-08-08T22:39:15;101153.75;;;15.72;100.00
65760;BME280;52496;51.082;5.066;2023-08-08T22:41:46;101166.16;;;15.73;100.00
65760;BME280;52496;51.082;5.066;2023-08-08T22:44:16;101164.09;;;15.75;100.00
65760;BME280;52496;51.082;5.066;2023-08-08T22:46:47;101154.38;;;15.74;100.00
65760;BME280;52496;51.082;5.066;2023-08-08T22:49:17;101154.97;;;15.76;100.00
65760;BME280;52496;51.082;5.066;2023-08-08T22:51:47;101148.75;;;15.75;100.00
65760;BME280;52496;51.082;5.066;2023-08-08T22:54:18;101159.13;;;15.78;100.00
65760;BME280;52496;51.082;5.066;2023-08-08T22:56:48;101150.19;;;15.78;100.00
65760;BME280;52496;51.082;5.066;2023-08-08T22:59:19;101146.47;;;15.79;100.00
65760;BME280;52496;51.082;5.066;2023-08-08T23:01:49;101156.22;;;15.80;100.00
65760;BME280;52496;51.082;5.066;2023-08-08T23:04:20;101164.91;;;15.82;100.00
65760;BME280;52496;51.082;5.066;2023-08-08T23:06:50;101156.63;;;15.83;100.00
65760;BME280;52496;51.082;5.066;2023-08-08T23:09:21;101157.44;;;15.84;100.00
65760;BME280;52496;51.082;5.066;2023-08-08T23:11:51;101156.63;;;15.83;100.00
65760;BME280;52496;51.082;5.066;2023-08-08T23:14:22;101150.81;;;15.87;100.00
65760;BME280;52496;51.082;5.066;2023-08-08T23:16:54;101151.63;;;15.87;100.00
65760;BME280;52496;51.082;5.066;2023-08-08T23:19:24;101153.28;;;15.88;100.00
65760;BME280;52496;51.082;5.066;2023-08-08T23:21:55;101156.59;;;15.90;100.00
65760;BME280;52496;51.082;5.066;2023-08-08T23:24:25;101152.84;;;15.91;100.00
65760;BME280;52496;51.082;5.066;2023-08-08T23:26:56;101150.78;;;15.93;100.00
65760;BME280;52496;51.082;5.066;2023-08-08T23:29:26;101146.22;;;15.94;100.00
65760;BME280;52496;51.082;5.066;2023-08-08T23:31:57;101147.03;;;15.94;100.00
65760;BME280;52496;51.082;5.066;2023-08-08T23:34:27;101153.28;;;15.95;100.00
65760;BME280;52496;51.082;5.066;2023-08-08T23:36:57;101154.09;;;15.95;100.00
65760;BME280;52496;51.082;5.066;2023-08-08T23:39:28;101144.97;;;15.96;100.00
65760;BME280;52496;51.082;5.066;2023-08-08T23:41:58;101137.50;;;15.98;100.00
65760;BME280;52496;51.082;5.066;2023-08-08T23:44:29;101145.59;;;15.98;100.00
65760;BME280;52496;51.082;5.066;2023-08-08T23:46:59;101141.63;;;16.01;100.00
65760;BME280;52496;51.082;5.066;2023-08-08T23:49:30;101147.84;;;16.01;100.00
65760;BME280;52496;51.082;5.066;2023-08-08T23:52:00;101133.31;;;16.02;100.00
65760;BME280;52496;51.082;5.066;2023-08-08T23:54:30;101142.47;;;16.01;100.00
65760;BME280;52496;51.082;5.066;2023-08-08T23:57:01;101141.41;;;16.02;100.00
65760;BME280;52496;51.082;5.066;2023-08-08T23:59:31;101148.69;;;16.02;100.00
